Aeroporto :
LOGIN :

Iscrizione | Disclaimer

   EN    FR    IT 

 










Sommario :    VFR   VFR Marginale   IFR   IFR Intensivo   IFR Molto Intensivo
Visibilità : 
Base nubi : 
>= 8 km
>= 3000ft
5 / 8 km
1000 / 3000 ft
1500m / 5 km
500 / 1000 ft
800 / 1500m
200 / 500 ft
< 800m
< 200 ft
Simboli :   Temporali  Nebbia  Neve Forte  Precipitazioni Forti  Vento > 20 kt
SIGMETs :   Varie  Temporali  Ghiacco  Turbolenza  Onda orograficha  Ceneri Vulcaniche







- Altitudine del aeroporto : 776 ft
- Codice IATA : RMS


ETAR - Ramstein Air Base

ULTIMO METAR :
  • 190135Z AUTO 00000KT 9999 CLR 17/14 A2995 RMK AO2 RAB28E35 SLP136 $

METARs OBSOLETI :
  • 190128Z AUTO 00000KT 9999 -RA FEW120 17/13 A2995 RMK AO2 RAB28 SLP136 $
  • 190056Z AUTO 00000KT 9999 BKN090 17/13 A2995 RMK AO2 SLP136 T01710134 $
  • 182356Z AUTO 00000KT 9999 BKN090 BKN160 17/14 A2995 RMK AO2 SLP136 T01660135 10243 20157 52005 $
  • 182256Z AUTO 00000KT 9999 BKN090 BKN170 16/14 A2995 RMK AO2 SLP137 T01640135 402800098 $

TAF TAF ETAR
Valido dal 18 a 18 ore il 20 a 00 ore UTC


181806Z 1818/1924 VRB06KT 9999 BKN080 QNH2989INS
BECMG 1901/1902 VRB06KT 9000 -SHRA BKN080 QNH2994INS
BECMG 1908/1909 25009KT 8000 -SHRA BKN030 QNH2997INS
BECMG 1913/1914 25009KT 9999 NSW BKN040 QNH2996INS TX26/1914Z TN15/1903Z
Nessun NOTAM noto per questo aeroporto.



MetMap, La meteo Aeronautica in un colpo d'occhio ! - Copyright ORBIFLY Dicembre 2007 - Disclaimer

ORBIFLY MET'MAP TEAM :

Programmazione e sviluppo : Alexandra Zaïnal
Concezione e sviluppo : Baudouin d'Aumeries
Co-Programmazione e sviluppo : Marc-Olivier Méhu
Supporto tecnico e logistico : Manuel Goepfert
Aiuto per la traduzione : Arnaldo La Scala

Contatto : metmap@orbifly.com




FONTI E CREDITI :

   NOAA